sensor_id;sensor_type;location;lat;lon;timestamp;temperature;humidity
10070;DHT22;5074;53.720;10.014;2023-06-10T00:01:13;14.10;99.90
10070;DHT22;5074;53.720;10.014;2023-06-10T00:03:41;14.10;99.90
10070;DHT22;5074;53.720;10.014;2023-06-10T00:06:10;14.00;99.90
10070;DHT22;5074;53.720;10.014;2023-06-10T00:08:38;14.00;99.90
10070;DHT22;5074;53.720;10.014;2023-06-10T00:11:06;13.90;99.90
10070;DHT22;5074;53.720;10.014;2023-06-10T00:13:34;13.90;99.90
10070;DHT22;5074;53.720;10.014;2023-06-10T00:16:03;13.80;99.90
10070;DHT22;5074;53.720;10.014;2023-06-10T00:18:33;13.80;99.90
10070;DHT22;5074;53.720;10.014;2023-06-10T00:21:03;13.80;99.90
10070;DHT22;5074;53.720;10.014;2023-06-10T00:23:32;13.70;99.90
10070;DHT22;5074;53.720;10.014;2023-06-10T00:26:04;13.70;99.90
10070;DHT22;5074;53.720;10.014;2023-06-10T00:28:32;13.70;99.90
10070;DHT22;5074;53.720;10.014;2023-06-10T00:31:01;13.70;99.90
10070;DHT22;5074;53.720;10.014;2023-06-10T00:33:29;13.60;99.90
10070;DHT22;5074;53.720;10.014;2023-06-10T00:35:58;13.60;99.90
10070;DHT22;5074;53.720;10.014;2023-06-10T00:38:27;13.60;99.90
10070;DHT22;5074;53.720;10.014;2023-06-10T00:40:55;13.50;99.90
10070;DHT22;5074;53.720;10.014;2023-06-10T00:43:23;13.50;99.90
10070;DHT22;5074;53.720;10.014;2023-06-10T00:45:51;13.40;99.90
10070;DHT22;5074;53.720;10.014;2023-06-10T00:48:19;13.40;99.90
10070;DHT22;5074;53.720;10.014;2023-06-10T00:50:48;13.40;99.90
10070;DHT22;5074;53.720;10.014;2023-06-10T00:53:18;13.40;99.90
10070;DHT22;5074;53.720;10.014;2023-06-10T00:55:47;13.30;99.90
10070;DHT22;5074;53.720;10.014;2023-06-10T00:58:15;13.30;99.90
10070;DHT22;5074;53.720;10.014;2023-06-10T01:00:43;13.20;99.90
10070;DHT22;5074;53.720;10.014;2023-06-10T01:03:13;13.20;99.90
10070;DHT22;5074;53.720;10.014;2023-06-10T01:05:43;13.10;99.90
10070;DHT22;5074;53.720;10.014;2023-06-10T01:08:19;13.10;99.90
10070;DHT22;5074;53.720;10.014;2023-06-10T01:10:57;13.10;99.90
10070;DHT22;5074;53.720;10.014;2023-06-10T01:13:28;13.10;99.90
10070;DHT22;5074;53.720;10.014;2023-06-10T01:15:58;13.00;99.90
10070;DHT22;5074;53.720;10.014;2023-06-10T01:18:29;13.10;99.90
10070;DHT22;5074;53.720;10.014;2023-06-10T01:20:59;13.10;99.90
10070;DHT22;5074;53.720;10.014;2023-06-10T01:23:28;13.10;99.90
10070;DHT22;5074;53.720;10.014;2023-06-10T01:25:58;13.10;99.90
10070;DHT22;5074;53.720;10.014;2023-06-10T01:28:30;13.00;99.90
10070;DHT22;5074;53.720;10.014;2023-06-10T01:31:06;13.00;99.90
10070;DHT22;5074;53.720;10.014;2023-06-10T01:33:39;12.90;99.90
10070;DHT22;5074;53.720;10.014;2023-06-10T01:36:10;12.80;99.90
10070;DHT22;5074;53.720;10.014;2023-06-10T01:38:42;12.80;99.90
10070;DHT22;5074;53.720;10.014;2023-06-10T01:41:11;12.80;99.90
10070;DHT22;5074;53.720;10.014;2023-06-10T01:43:42;12.80;99.90
10070;DHT22;5074;53.720;10.014;2023-06-10T01:46:11;12.70;99.90
10070;DHT22;5074;53.720;10.014;2023-06-10T01:48:39;12.70;99.90
10070;DHT22;5074;53.720;10.014;2023-06-10T01:51:09;12.60;99.90
10070;DHT22;5074;53.720;10.014;2023-06-10T01:53:37;12.60;99.90
10070;DHT22;5074;53.720;10.014;2023-06-10T01:56:06;12.60;99.90
10070;DHT22;5074;53.720;10.014;2023-06-10T01:58:34;12.50;99.90
10070;DHT22;5074;53.720;10.014;2023-06-10T02:01:02;12.50;99.90
10070;DHT22;5074;53.720;10.014;2023-06-10T02:03:30;12.50;99.90
10070;DHT22;5074;53.720;10.014;2023-06-10T02:05:59;12.50;99.90
10070;DHT22;5074;53.720;10.014;2023-06-10T02:08:27;12.50;99.90
10070;DHT22;5074;53.720;10.014;2023-06-10T02:10:55;12.50;99.90
10070;DHT22;5074;53.720;10.014;2023-06-10T02:13:24;12.50;99.90
10070;DHT22;5074;53.720;10.014;2023-06-10T02:15:52;12.50;99.90
10070;DHT22;5074;53.720;10.014;2023-06-10T02:18:21;12.50;99.90
10070;DHT22;5074;53.720;10.014;2023-06-10T02:20:49;12.40;99.90
10070;DHT22;5074;53.720;10.014;2023-06-10T02:23:17;12.40;99.90
10070;DHT22;5074;53.720;10.014;2023-06-10T02:25:45;12.30;99.90
10070;DHT22;5074;53.720;10.014;2023-06-10T02:28:14;12.30;99.90
10070;DHT22;5074;53.720;10.014;2023-06-10T02:30:44;12.20;99.90
10070;DHT22;5074;53.720;10.014;2023-06-10T02:33:13;12.30;99.90
10070;DHT22;5074;53.720;10.014;2023-06-10T02:35:41;12.30;99.90
10070;DHT22;5074;53.720;10.014;2023-06-10T02:38:10;12.30;99.90
10070;DHT22;5074;53.720;10.014;2023-06-10T02:40:38;12.30;99.90
10070;DHT22;5074;53.720;10.014;2023-06-10T02:43:06;12.20;99.90
10070;DHT22;5074;53.720;10.014;2023-06-10T02:45:34;12.20;99.90
10070;DHT22;5074;53.720;10.014;2023-06-10T02:48:04;12.20;99.90
10070;DHT22;5074;53.720;10.014;2023-06-10T02:50:32;12.20;99.90
10070;DHT22;5074;53.720;10.014;2023-06-10T02:53:00;12.20;99.90
10070;DHT22;5074;53.720;10.014;2023-06-10T02:55:28;12.20;99.90
10070;DHT22;5074;53.720;10.014;2023-06-10T02:57:57;12.30;99.90
10070;DHT22;5074;53.720;10.014;2023-06-10T03:00:25;12.30;99.90
10070;DHT22;5074;53.720;10.014;2023-06-10T03:02:55;12.30;99.90
10070;DHT22;5074;53.720;10.014;2023-06-10T03:05:25;12.30;99.90
10070;DHT22;5074;53.720;10.014;2023-06-10T03:07:53;12.30;99.90
10070;DHT22;5074;53.720;10.014;2023-06-10T03:10:21;12.30;99.90
10070;DHT22;5074;53.720;10.014;2023-06-10T03:12:49;12.30;99.90
10070;DHT22;5074;53.720;10.014;2023-06-10T03:15:18;12.30;99.90
10070;DHT22;5074;53.720;10.014;2023-06-10T03:17:47;12.40;99.90
10070;DHT22;5074;53.720;10.014;2023-06-10T03:20:15;12.30;99.90
10070;DHT22;5074;53.720;10.014;2023-06-10T03:22:45;12.40;99.90
10070;DHT22;5074;53.720;10.014;2023-06-10T03:25:13;12.40;99.90
10070;DHT22;5074;53.720;10.014;2023-06-10T03:27:41;12.40;99.90
10070;DHT22;5074;53.720;10.014;2023-06-10T03:30:10;12.40;99.90
10070;DHT22;5074;53.720;10.014;2023-06-10T03:32:39;12.40;99.90
10070;DHT22;5074;53.720;10.014;2023-06-10T03:35:08;12.40;99.90
10070;DHT22;5074;53.720;10.014;2023-06-10T03:37:36;12.40;99.90
10070;DHT22;5074;53.720;10.014;2023-06-10T03:40:07;12.50;99.90
10070;DHT22;5074;53.720;10.014;2023-06-10T03:42:36;12.50;99.90
10070;DHT22;5074;53.720;10.014;2023-06-10T03:45:04;12.50;99.90
10070;DHT22;5074;53.720;10.014;2023-06-10T03:47:34;12.60;99.90
10070;DHT22;5074;53.720;10.014;2023-06-10T03:50:04;12.50;99.90
10070;DHT22;5074;53.720;10.014;2023-06-10T03:52:32;12.60;99.90
10070;DHT22;5074;53.720;10.014;2023-06-10T03:55:00;12.60;99.90
10070;DHT22;5074;53.720;10.014;2023-06-10T03:57:30;12.70;99.90
10070;DHT22;5074;53.720;10.014;2023-06-10T03:59:58;12.80;99.90
10070;DHT22;5074;53.720;10.014;2023-06-10T04:02:26;12.80;99.90
10070;DHT22;5074;53.720;10.014;2023-06-10T04:04:55;12.90;99.90
10070;DHT22;5074;53.720;10.014;2023-06-10T04:07:23;12.90;99.90
10070;DHT22;5074;53.720;10.014;2023-06-10T04:09:53;12.90;99.90
10070;DHT22;5074;53.720;10.014;2023-06-10T04:12:21;13.00;99.90
10070;DHT22;5074;53.720;10.014;2023-06-10T04:14:51;13.10;99.90
10070;DHT22;5074;53.720;10.014;2023-06-10T04:17:19;13.10;99.90
10070;DHT22;5074;53.720;10.014;2023-06-10T04:19:47;13.10;99.90
10070;DHT22;5074;53.720;10.014;2023-06-10T04:22:15;13.10;99.90
10070;DHT22;5074;53.720;10.014;2023-06-10T04:24:44;13.10;99.90
10070;DHT22;5074;53.720;10.014;2023-06-10T04:27:12;13.20;99.90
10070;DHT22;5074;53.720;10.014;2023-06-10T04:29:40;13.20;99.90
10070;DHT22;5074;53.720;10.014;2023-06-10T04:32:10;13.30;99.90
10070;DHT22;5074;53.720;10.014;2023-06-10T04:34:38;13.40;99.90
10070;DHT22;5074;53.720;10.014;2023-06-10T04:37:06;13.40;99.90
10070;DHT22;5074;53.720;10.014;2023-06-10T04:39:35;13.50;99.90
10070;DHT22;5074;53.720;10.014;2023-06-10T04:42:05;13.60;99.90
10070;DHT22;5074;53.720;10.014;2023-06-10T04:44:33;13.70;99.90
10070;DHT22;5074;53.720;10.014;2023-06-10T04:47:01;13.80;99.90
10070;DHT22;5074;53.720;10.014;2023-06-10T04:49:33;13.80;99.90
10070;DHT22;5074;53.720;10.014;2023-06-10T04:52:02;14.00;99.90
10070;DHT22;5074;53.720;10.014;2023-06-10T04:54:31;14.00;99.90
10070;DHT22;5074;53.720;10.014;2023-06-10T04:57:00;14.20;99.90
10070;DHT22;5074;53.720;10.014;2023-06-10T04:59:28;14.10;99.90
10070;DHT22;5074;53.720;10.014;2023-06-10T05:01:56;14.30;99.90
10070;DHT22;5074;53.720;10.014;2023-06-10T05:04:25;14.40;99.90
10070;DHT22;5074;53.720;10.014;2023-06-10T05:06:54;14.60;99.90
10070;DHT22;5074;53.720;10.014;2023-06-10T05:09:23;14.70;99.90
10070;DHT22;5074;53.720;10.014;2023-06-10T05:11:52;14.80;99.90
10070;DHT22;5074;53.720;10.014;2023-06-10T05:14:20;14.90;99.90
10070;DHT22;5074;53.720;10.014;2023-06-10T05:16:49;14.80;99.90
10070;DHT22;5074;53.720;10.014;2023-06-10T05:19:17;14.70;99.90
10070;DHT22;5074;53.720;10.014;2023-06-10T05:21:45;14.70;99.90
10070;DHT22;5074;53.720;10.014;2023-06-10T05:24:16;14.60;99.90
10070;DHT22;5074;53.720;10.014;2023-06-10T05:26:44;14.60;99.90
10070;DHT22;5074;53.720;10.014;2023-06-10T05:29:12;14.60;99.90
10070;DHT22;5074;53.720;10.014;2023-06-10T05:31:41;14.60;99.90
10070;DHT22;5074;53.720;10.014;2023-06-10T05:34:09;14.60;99.90
10070;DHT22;5074;53.720;10.014;2023-06-10T05:36:37;14.60;99.90
10070;DHT22;5074;53.720;10.014;2023-06-10T05:39:05;14.60;99.90
10070;DHT22;5074;53.720;10.014;2023-06-10T05:41:35;14.70;99.90
10070;DHT22;5074;53.720;10.014;2023-06-10T05:44:03;14.70;99.90
10070;DHT22;5074;53.720;10.014;2023-06-10T05:46:31;14.70;99.90
10070;DHT22;5074;53.720;10.014;2023-06-10T05:49:00;14.70;99.90
10070;DHT22;5074;53.720;10.014;2023-06-10T05:51:28;14.80;99.90
10070;DHT22;5074;53.720;10.014;2023-06-10T05:53:56;14.80;99.90
10070;DHT22;5074;53.720;10.014;2023-06-10T05:56:24;14.80;99.90
10070;DHT22;5074;53.720;10.014;2023-06-10T05:58:53;14.80;99.90
10070;DHT22;5074;53.720;10.014;2023-06-10T06:01:22;14.80;99.90
10070;DHT22;5074;53.720;10.014;2023-06-10T06:03:50;14.80;99.90
10070;DHT22;5074;53.720;10.014;2023-06-10T06:06:18;14.90;99.90
10070;DHT22;5074;53.720;10.014;2023-06-10T06:08:47;14.90;99.90
10070;DHT22;5074;53.720;10.014;2023-06-10T06:11:15;14.90;99.90
10070;DHT22;5074;53.720;10.014;2023-06-10T06:13:43;15.00;99.90
10070;DHT22;5074;53.720;10.014;2023-06-10T06:16:13;15.10;99.90
10070;DHT22;5074;53.720;10.014;2023-06-10T06:18:42;15.10;99.90
10070;DHT22;5074;53.720;10.014;2023-06-10T06:21:10;15.20;99.90
10070;DHT22;5074;53.720;10.014;2023-06-10T06:23:38;15.30;99.90
10070;DHT22;5074;53.720;10.014;2023-06-10T06:26:07;15.30;99.90
10070;DHT22;5074;53.720;10.014;2023-06-10T06:28:35;15.40;99.90
10070;DHT22;5074;53.720;10.014;2023-06-10T06:31:03;15.50;99.90
10070;DHT22;5074;53.720;10.014;2023-06-10T06:33:32;15.50;99.90
10070;DHT22;5074;53.720;10.014;2023-06-10T06:36:00;15.60;99.90
10070;DHT22;5074;53.720;10.014;2023-06-10T06:38:28;15.60;99.90
10070;DHT22;5074;53.720;10.014;2023-06-10T06:40:56;15.60;99.90
10070;DHT22;5074;53.720;10.014;2023-06-10T06:43:29;15.70;99.90
10070;DHT22;5074;53.720;10.014;2023-06-10T06:45:57;15.80;99.90
10070;DHT22;5074;53.720;10.014;2023-06-10T06:48:25;15.90;99.90
10070;DHT22;5074;53.720;10.014;2023-06-10T06:50:55;16.00;99.90
10070;DHT22;5074;53.720;10.014;2023-06-10T06:53:25;16.20;99.90
10070;DHT22;5074;53.720;10.014;2023-06-10T06:55:57;16.30;99.90
10070;DHT22;5074;53.720;10.014;2023-06-10T06:58:25;16.40;99.90
10070;DHT22;5074;53.720;10.014;2023-06-10T07:00:53;16.50;99.90
10070;DHT22;5074;53.720;10.014;2023-06-10T07:03:21;16.40;99.90
10070;DHT22;5074;53.720;10.014;2023-06-10T07:05:49;16.50;99.90
10070;DHT22;5074;53.720;10.014;2023-06-10T07:08:19;16.70;99.90
10070;DHT22;5074;53.720;10.014;2023-06-10T07:10:47;16.80;99.90
10070;DHT22;5074;53.720;10.014;2023-06-10T07:13:15;16.80;99.90
10070;DHT22;5074;53.720;10.014;2023-06-10T07:15:43;16.80;99.90
10070;DHT22;5074;53.720;10.014;2023-06-10T07:18:11;16.80;99.90
10070;DHT22;5074;53.720;10.014;2023-06-10T07:20:39;16.70;99.90
10070;DHT22;5074;53.720;10.014;2023-06-10T07:23:08;16.80;99.90
10070;DHT22;5074;53.720;10.014;2023-06-10T07:25:37;16.90;99.90
10070;DHT22;5074;53.720;10.014;2023-06-10T07:28:05;17.00;99.90
10070;DHT22;5074;53.720;10.014;2023-06-10T07:30:33;17.20;99.90
10070;DHT22;5074;53.720;10.014;2023-06-10T07:33:01;17.20;99.90
10070;DHT22;5074;53.720;10.014;2023-06-10T07:35:30;17.20;99.90
10070;DHT22;5074;53.720;10.014;2023-06-10T07:37:58;17.30;99.90
10070;DHT22;5074;53.720;10.014;2023-06-10T07:40:26;17.30;99.90
10070;DHT22;5074;53.720;10.014;2023-06-10T07:42:55;17.20;99.90
10070;DHT22;5074;53.720;10.014;2023-06-10T07:45:23;17.30;99.90
10070;DHT22;5074;53.720;10.014;2023-06-10T07:47:52;17.30;99.90
10070;DHT22;5074;53.720;10.014;2023-06-10T07:50:20;17.30;99.90
10070;DHT22;5074;53.720;10.014;2023-06-10T07:52:48;17.20;99.90
10070;DHT22;5074;53.720;10.014;2023-06-10T07:55:16;17.30;99.90
10070;DHT22;5074;53.720;10.014;2023-06-10T07:57:44;17.30;99.90
10070;DHT22;5074;53.720;10.014;2023-06-10T08:00:14;17.40;99.90
10070;DHT22;5074;53.720;10.014;2023-06-10T08:02:42;17.50;99.90
10070;DHT22;5074;53.720;10.014;2023-06-10T08:05:11;17.60;99.90
10070;DHT22;5074;53.720;10.014;2023-06-10T08:07:39;17.60;99.90
10070;DHT22;5074;53.720;10.014;2023-06-10T08:10:08;17.60;99.90
10070;DHT22;5074;53.720;10.014;2023-06-10T08:12:36;17.70;99.90
10070;DHT22;5074;53.720;10.014;2023-06-10T08:15:05;17.80;99.90
10070;DHT22;5074;53.720;10.014;2023-06-10T08:17:36;17.90;99.90
10070;DHT22;5074;53.720;10.014;2023-06-10T08:20:05;18.00;99.90
10070;DHT22;5074;53.720;10.014;2023-06-10T08:22:34;18.10;99.90
10070;DHT22;5074;53.720;10.014;2023-06-10T08:25:02;18.10;99.90
10070;DHT22;5074;53.720;10.014;2023-06-10T08:27:31;18.10;99.90
10070;DHT22;5074;53.720;10.014;2023-06-10T08:29:59;18.10;99.90
10070;DHT22;5074;53.720;10.014;2023-06-10T08:32:27;18.10;99.90
10070;DHT22;5074;53.720;10.014;2023-06-10T08:34:57;18.10;99.90
10070;DHT22;5074;53.720;10.014;2023-06-10T08:37:25;18.10;99.90
10070;DHT22;5074;53.720;10.014;2023-06-10T08:39:53;18.10;99.90
10070;DHT22;5074;53.720;10.014;2023-06-10T08:42:22;18.20;99.90
10070;DHT22;5074;53.720;10.014;2023-06-10T08:44:52;18.20;99.90
10070;DHT22;5074;53.720;10.014;2023-06-10T08:47:22;18.30;99.90
10070;DHT22;5074;53.720;10.014;2023-06-10T08:49:52;18.60;99.90
10070;DHT22;5074;53.720;10.014;2023-06-10T08:52:24;18.50;99.90
10070;DHT22;5074;53.720;10.014;2023-06-10T08:54:57;18.50;99.90
10070;DHT22;5074;53.720;10.014;2023-06-10T08:57:27;18.60;99.90
10070;DHT22;5074;53.720;10.014;2023-06-10T08:59:57;18.80;99.90
10070;DHT22;5074;53.720;10.014;2023-06-10T09:02:25;18.90;99.90
10070;DHT22;5074;53.720;10.014;2023-06-10T09:04:55;18.80;99.90
10070;DHT22;5074;53.720;10.014;2023-06-10T09:07:25;18.80;99.90
10070;DHT22;5074;53.720;10.014;2023-06-10T09:09:53;18.90;99.90
10070;DHT22;5074;53.720;10.014;2023-06-10T09:12:23;18.80;99.90
10070;DHT22;5074;53.720;10.014;2023-06-10T09:14:51;18.80;99.90
10070;DHT22;5074;53.720;10.014;2023-06-10T09:17:19;18.80;99.90
10070;DHT22;5074;53.720;10.014;2023-06-10T09:19:47;18.80;99.90
10070;DHT22;5074;53.720;10.014;2023-06-10T09:22:17;18.90;99.90
10070;DHT22;5074;53.720;10.014;2023-06-10T09:24:47;18.80;99.90
10070;DHT22;5074;53.720;10.014;2023-06-10T09:27:15;19.00;99.90
10070;DHT22;5074;53.720;10.014;2023-06-10T09:29:46;19.20;99.90
10070;DHT22;5074;53.720;10.014;2023-06-10T09:32:16;19.40;99.90
10070;DHT22;5074;53.720;10.014;2023-06-10T09:34:45;19.60;99.90
10070;DHT22;5074;53.720;10.014;2023-06-10T09:37:14;19.40;99.90
10070;DHT22;5074;53.720;10.014;2023-06-10T09:40:02;19.40;99.90
10070;DHT22;5074;53.720;10.014;2023-06-10T09:42:34;19.50;99.90
10070;DHT22;5074;53.720;10.014;2023-06-10T09:45:05;19.70;99.90
10070;DHT22;5074;53.720;10.014;2023-06-10T09:47:34;19.90;99.90
10070;DHT22;5074;53.720;10.014;2023-06-10T09:50:02;19.90;99.90
10070;DHT22;5074;53.720;10.014;2023-06-10T09:52:32;19.90;99.90
10070;DHT22;5074;53.720;10.014;2023-06-10T09:55:02;20.00;99.90
10070;DHT22;5074;53.720;10.014;2023-06-10T09:57:31;20.10;99.90
10070;DHT22;5074;53.720;10.014;2023-06-10T10:00:03;20.00;99.90
10070;DHT22;5074;53.720;10.014;2023-06-10T10:02:32;20.00;99.90
10070;DHT22;5074;53.720;10.014;2023-06-10T10:05:02;19.90;99.90
10070;DHT22;5074;53.720;10.014;2023-06-10T10:07:31;20.00;99.90
10070;DHT22;5074;53.720;10.014;2023-06-10T10:10:00;20.00;99.90
10070;DHT22;5074;53.720;10.014;2023-06-10T10:12:29;20.10;99.90
10070;DHT22;5074;53.720;10.014;2023-06-10T10:14:57;20.10;99.90
10070;DHT22;5074;53.720;10.014;2023-06-10T10:17:26;20.20;99.90
10070;DHT22;5074;53.720;10.014;2023-06-10T10:19:56;20.30;99.90
10070;DHT22;5074;53.720;10.014;2023-06-10T10:22:29;20.40;99.90
10070;DHT22;5074;53.720;10.014;2023-06-10T10:25:05;20.30;99.90
10070;DHT22;5074;53.720;10.014;2023-06-10T10:27:40;20.30;99.90
10070;DHT22;5074;53.720;10.014;2023-06-10T10:30:12;20.50;99.90
10070;DHT22;5074;53.720;10.014;2023-06-10T10:32:46;20.70;99.90
10070;DHT22;5074;53.720;10.014;2023-06-10T10:35:23;20.60;99.90
10070;DHT22;5074;53.720;10.014;2023-06-10T10:37:52;20.60;99.90
10070;DHT22;5074;53.720;10.014;2023-06-10T10:40:23;20.70;99.90
10070;DHT22;5074;53.720;10.014;2023-06-10T10:42:53;21.00;99.90
10070;DHT22;5074;53.720;10.014;2023-06-10T10:45:21;20.90;99.90
10070;DHT22;5074;53.720;10.014;2023-06-10T10:47:51;21.00;99.90
10070;DHT22;5074;53.720;10.014;2023-06-10T10:50:22;21.10;99.90
10070;DHT22;5074;53.720;10.014;2023-06-10T10:52:51;21.30;99.90
10070;DHT22;5074;53.720;10.014;2023-06-10T10:55:22;21.20;99.90
10070;DHT22;5074;53.720;10.014;2023-06-10T10:57:54;21.10;99.90
10070;DHT22;5074;53.720;10.014;2023-06-10T11:00:27;21.10;99.90
10070;DHT22;5074;53.720;10.014;2023-06-10T11:02:57;21.10;99.90
10070;DHT22;5074;53.720;10.014;2023-06-10T11:05:36;21.40;99.90
10070;DHT22;5074;53.720;10.014;2023-06-10T11:08:07;21.50;99.90
10070;DHT22;5074;53.720;10.014;2023-06-10T11:10:38;21.60;99.90
10070;DHT22;5074;53.720;10.014;2023-06-10T11:13:07;21.70;99.90
10070;DHT22;5074;53.720;10.014;2023-06-10T11:15:43;21.80;99.90
10070;DHT22;5074;53.720;10.014;2023-06-10T11:18:14;21.90;99.90
10070;DHT22;5074;53.720;10.014;2023-06-10T11:20:57;22.00;99.90
10070;DHT22;5074;53.720;10.014;2023-06-10T11:23:40;22.00;99.90
10070;DHT22;5074;53.720;10.014;2023-06-10T11:26:16;22.20;99.90
10070;DHT22;5074;53.720;10.014;2023-06-10T11:31:42;22.30;99.90
10070;DHT22;5074;53.720;10.014;2023-06-10T11:34:12;22.40;99.90
10070;DHT22;5074;53.720;10.014;2023-06-10T11:36:41;22.40;99.90
10070;DHT22;5074;53.720;10.014;2023-06-10T11:39:12;22.50;99.90
10070;DHT22;5074;53.720;10.014;2023-06-10T11:41:41;22.70;99.90
10070;DHT22;5074;53.720;10.014;2023-06-10T11:44:10;22.80;99.90
10070;DHT22;5074;53.720;10.014;2023-06-10T11:46:44;22.80;99.90
10070;DHT22;5074;53.720;10.014;2023-06-10T11:49:12;22.90;99.90
10070;DHT22;5074;53.720;10.014;2023-06-10T11:51:41;23.10;99.90
10070;DHT22;5074;53.720;10.014;2023-06-10T11:54:16;23.20;99.90
10070;DHT22;5074;53.720;10.014;2023-06-10T11:56:46;23.40;99.90
10070;DHT22;5074;53.720;10.014;2023-06-10T11:59:15;23.40;99.90
10070;DHT22;5074;53.720;10.014;2023-06-10T12:01:43;23.40;99.90
10070;DHT22;5074;53.720;10.014;2023-06-10T12:04:13;23.40;99.90
10070;DHT22;5074;53.720;10.014;2023-06-10T12:06:43;23.50;99.90
10070;DHT22;5074;53.720;10.014;2023-06-10T12:09:23;23.60;99.90
10070;DHT22;5074;53.720;10.014;2023-06-10T12:11:56;23.80;99.90
10070;DHT22;5074;53.720;10.014;2023-06-10T12:17:35;24.00;99.90
10070;DHT22;5074;53.720;10.014;2023-06-10T12:20:05;24.10;99.90
10070;DHT22;5074;53.720;10.014;2023-06-10T12:22:38;24.30;99.90
10070;DHT22;5074;53.720;10.014;2023-06-10T12:25:08;24.60;99.90
10070;DHT22;5074;53.720;10.014;2023-06-10T12:27:40;24.80;99.90
10070;DHT22;5074;53.720;10.014;2023-06-10T12:30:19;24.90;99.90
10070;DHT22;5074;53.720;10.014;2023-06-10T12:32:48;25.40;99.90
10070;DHT22;5074;53.720;10.014;2023-06-10T12:35:19;26.10;99.90
10070;DHT22;5074;53.720;10.014;2023-06-10T12:37:54;26.80;99.90
10070;DHT22;5074;53.720;10.014;2023-06-10T12:40:26;27.70;99.90
10070;DHT22;5074;53.720;10.014;2023-06-10T12:42:57;28.20;99.90
10070;DHT22;5074;53.720;10.014;2023-06-10T12:45:26;28.80;99.90
10070;DHT22;5074;53.720;10.014;2023-06-10T12:48:05;29.10;99.90
10070;DHT22;5074;53.720;10.014;2023-06-10T12:50:36;29.40;99.90
10070;DHT22;5074;53.720;10.014;2023-06-10T12:53:05;29.80;99.90
10070;DHT22;5074;53.720;10.014;2023-06-10T12:55:34;30.50;99.90
10070;DHT22;5074;53.720;10.014;2023-06-10T12:58:04;30.20;99.90
10070;DHT22;5074;53.720;10.014;2023-06-10T13:00:32;30.60;99.70
10070;DHT22;5074;53.720;10.014;2023-06-10T13:03:02;30.50;99.60
10070;DHT22;5074;53.720;10.014;2023-06-10T13:05:32;30.60;99.90
10070;DHT22;5074;53.720;10.014;2023-06-10T13:08:00;30.40;99.60
10070;DHT22;5074;53.720;10.014;2023-06-10T13:10:28;30.60;99.20
10070;DHT22;5074;53.720;10.014;2023-06-10T13:12:57;30.80;99.50
10070;DHT22;5074;53.720;10.014;2023-06-10T13:15:27;30.90;99.00
10070;DHT22;5074;53.720;10.014;2023-06-10T13:17:55;31.10;99.10
10070;DHT22;5074;53.720;10.014;2023-06-10T13:20:23;31.00;98.50
10070;DHT22;5074;53.720;10.014;2023-06-10T13:22:52;30.80;98.80
10070;DHT22;5074;53.720;10.014;2023-06-10T13:25:20;30.80;98.50
10070;DHT22;5074;53.720;10.014;2023-06-10T13:27:49;31.10;98.10
10070;DHT22;5074;53.720;10.014;2023-06-10T13:30:17;31.70;98.10
10070;DHT22;5074;53.720;10.014;2023-06-10T13:32:47;31.10;98.00
10070;DHT22;5074;53.720;10.014;2023-06-10T13:35:15;30.80;97.90
10070;DHT22;5074;53.720;10.014;2023-06-10T13:37:43;31.30;97.60
10070;DHT22;5074;53.720;10.014;2023-06-10T13:40:12;32.10;97.30
10070;DHT22;5074;53.720;10.014;2023-06-10T13:42:40;32.10;96.70
10070;DHT22;5074;53.720;10.014;2023-06-10T13:45:08;31.70;96.80
10070;DHT22;5074;53.720;10.014;2023-06-10T13:47:37;31.40;96.40
10070;DHT22;5074;53.720;10.014;2023-06-10T13:50:08;31.60;96.80
10070;DHT22;5074;53.720;10.014;2023-06-10T13:52:36;32.00;96.20
10070;DHT22;5074;53.720;10.014;2023-06-10T13:55:04;32.40;95.10
10070;DHT22;5074;53.720;10.014;2023-06-10T13:57:33;32.20;95.10
10070;DHT22;5074;53.720;10.014;2023-06-10T14:00:01;31.70;95.90
10070;DHT22;5074;53.720;10.014;2023-06-10T14:02:30;31.50;95.80
10070;DHT22;5074;53.720;10.014;2023-06-10T14:04:58;31.60;95.30
10070;DHT22;5074;53.720;10.014;2023-06-10T14:07:27;31.20;95.90
10070;DHT22;5074;53.720;10.014;2023-06-10T14:09:55;31.10;96.10
10070;DHT22;5074;53.720;10.014;2023-06-10T14:12:23;31.00;96.20
10070;DHT22;5074;53.720;10.014;2023-06-10T14:14:51;31.50;95.60
10070;DHT22;5074;53.720;10.014;2023-06-10T14:17:19;32.40;95.00
10070;DHT22;5074;53.720;10.014;2023-06-10T14:19:49;32.30;94.40
10070;DHT22;5074;53.720;10.014;2023-06-10T14:22:17;32.40;94.40
10070;DHT22;5074;53.720;10.014;2023-06-10T14:24:47;32.50;94.50
10070;DHT22;5074;53.720;10.014;2023-06-10T14:27:15;32.60;94.20
10070;DHT22;5074;53.720;10.014;2023-06-10T14:29:43;32.60;94.00
10070;DHT22;5074;53.720;10.014;2023-06-10T14:32:11;32.70;93.60
10070;DHT22;5074;53.720;10.014;2023-06-10T14:34:40;32.90;93.60
10070;DHT22;5074;53.720;10.014;2023-06-10T14:37:10;33.00;93.20
10070;DHT22;5074;53.720;10.014;2023-06-10T14:39:39;32.20;93.90
10070;DHT22;5074;53.720;10.014;2023-06-10T14:42:08;32.40;94.30
10070;DHT22;5074;53.720;10.014;2023-06-10T14:44:37;32.80;93.30
10070;DHT22;5074;53.720;10.014;2023-06-10T14:47:05;32.10;93.20
10070;DHT22;5074;53.720;10.014;2023-06-10T14:49:33;31.70;94.10
10070;DHT22;5074;53.720;10.014;2023-06-10T14:52:01;32.00;94.20
10070;DHT22;5074;53.720;10.014;2023-06-10T14:54:29;31.70;93.40
10070;DHT22;5074;53.720;10.014;2023-06-10T14:56:58;31.40;93.90
10070;DHT22;5074;53.720;10.014;2023-06-10T14:59:27;32.00;93.90
10070;DHT22;5074;53.720;10.014;2023-06-10T15:01:55;32.20;93.60
10070;DHT22;5074;53.720;10.014;2023-06-10T15:04:26;31.90;93.60
10070;DHT22;5074;53.720;10.014;2023-06-10T15:06:55;32.10;93.20
10070;DHT22;5074;53.720;10.014;2023-06-10T15:09:23;32.30;93.50
10070;DHT22;5074;53.720;10.014;2023-06-10T15:11:51;32.90;92.70
10070;DHT22;5074;53.720;10.014;2023-06-10T15:14:19;32.90;93.10
10070;DHT22;5074;53.720;10.014;2023-06-10T15:16:49;32.80;92.60
10070;DHT22;5074;53.720;10.014;2023-06-10T15:19:17;32.30;92.60
10070;DHT22;5074;53.720;10.014;2023-06-10T15:21:45;32.70;92.70
10070;DHT22;5074;53.720;10.014;2023-06-10T15:24:13;32.50;92.20
10070;DHT22;5074;53.720;10.014;2023-06-10T15:26:42;32.40;92.30
10070;DHT22;5074;53.720;10.014;2023-06-10T15:29:10;32.40;92.30
10070;DHT22;5074;53.720;10.014;2023-06-10T15:31:38;32.00;92.40
10070;DHT22;5074;53.720;10.014;2023-06-10T15:34:08;31.90;92.40
10070;DHT22;5074;53.720;10.014;2023-06-10T15:36:36;31.80;92.60
10070;DHT22;5074;53.720;10.014;2023-06-10T15:39:04;31.60;92.90
10070;DHT22;5074;53.720;10.014;2023-06-10T15:41:33;31.70;92.40
10070;DHT22;5074;53.720;10.014;2023-06-10T15:44:02;31.40;92.50
10070;DHT22;5074;53.720;10.014;2023-06-10T15:46:30;31.20;92.20
10070;DHT22;5074;53.720;10.014;2023-06-10T15:49:00;31.50;92.40